createdAt,value
2022-08-04T00:02:25.405Z,2.90
2022-08-04T00:04:54.906Z,2.70
2022-08-04T00:07:44.497Z,3.20
2022-08-04T00:10:14.765Z,2.80
2022-08-04T00:12:45.260Z,3.00
2022-08-04T00:15:16.667Z,2.50
2022-08-04T00:17:47.720Z,2.50
2022-08-04T00:20:19.819Z,2.40
2022-08-04T00:22:48.792Z,2.50
2022-08-04T00:25:17.338Z,2.80
2022-08-04T00:27:46.751Z,2.17
2022-08-04T00:30:14.675Z,2.75
2022-08-04T00:32:43.323Z,2.63
2022-08-04T00:35:14.691Z,3.00
2022-08-04T00:37:44.975Z,2.50
2022-08-04T00:40:18.595Z,2.50
2022-08-04T00:42:59.255Z,2.58
2022-08-04T00:46:15.922Z,2.72
2022-08-04T00:48:32.210Z,2.70
2022-08-04T00:51:06.889Z,3.25
2022-08-04T00:53:40.724Z,3.10
2022-08-04T00:56:31.488Z,2.58
2022-08-04T00:59:03.761Z,2.73
2022-08-04T01:01:45.179Z,3.00
2022-08-04T01:04:19.752Z,2.72
2022-08-04T01:06:59.825Z,2.78
2022-08-04T01:09:32.432Z,2.70
2022-08-04T01:12:07.922Z,2.60
2022-08-04T01:14:47.578Z,2.63
2022-08-04T01:17:21.223Z,2.80
2022-08-04T01:19:55.330Z,2.88
2022-08-04T01:22:39.420Z,3.00
2022-08-04T01:25:25.305Z,2.78
2022-08-04T01:28:06.910Z,2.60
2022-08-04T01:30:37.284Z,3.00
2022-08-04T01:33:09.846Z,2.70
2022-08-04T01:35:46.745Z,2.90
2022-08-04T01:38:21.474Z,3.00
2022-08-04T01:40:51.993Z,3.10
2022-08-04T01:43:21.252Z,3.00
2022-08-04T01:45:52.081Z,2.90
2022-08-04T01:48:24.922Z,3.00
2022-08-04T01:50:53.259Z,2.90
2022-08-04T01:53:22.120Z,3.20
2022-08-04T01:55:54.127Z,3.17
2022-08-04T01:58:24.438Z,3.05
2022-08-04T02:00:57.456Z,2.90
2022-08-04T02:04:20.824Z,2.78
2022-08-04T02:06:19.616Z,3.10
2022-08-04T02:08:51.049Z,3.08
2022-08-04T02:11:21.521Z,2.60
2022-08-04T02:13:54.476Z,3.17
2022-08-04T02:16:28.660Z,2.50
2022-08-04T02:19:01.397Z,2.80
2022-08-04T02:21:42.714Z,2.75
2022-08-04T02:24:14.332Z,3.10
2022-08-04T02:26:43.071Z,3.00
2022-08-04T02:29:13.830Z,3.20
2022-08-04T02:31:47.500Z,2.80
2022-08-04T02:34:17.796Z,2.97
2022-08-04T02:50:28.349Z,2.95
2022-08-04T02:52:58.085Z,3.40
2022-08-04T02:55:26.615Z,3.15
2022-08-04T02:57:55.406Z,3.70
2022-08-04T03:00:23.476Z,3.50
2022-08-04T03:02:57.017Z,3.80
2022-08-04T03:05:27.961Z,3.65
2022-08-04T03:08:00.737Z,3.53
2022-08-04T03:10:40.488Z,3.55
2022-08-04T03:13:25.858Z,3.25
2022-08-04T03:15:59.552Z,3.10
2022-08-04T03:18:42.652Z,3.10
2022-08-04T03:21:26.158Z,3.67
2022-08-04T03:24:19.595Z,3.30
2022-08-04T03:27:00.362Z,2.47
2022-08-04T03:29:43.452Z,3.30
2022-08-04T03:32:26.757Z,3.00
2022-08-04T03:35:04.882Z,3.20
2022-08-04T03:37:58.303Z,3.55
2022-08-04T03:40:36.723Z,3.30
2022-08-04T03:43:57.286Z,3.20
2022-08-04T03:46:29.174Z,3.10
2022-08-04T03:49:09.205Z,3.72
2022-08-04T03:51:56.582Z,3.10
2022-08-04T03:54:41.125Z,3.00
2022-08-04T03:57:24.595Z,3.57
2022-08-04T04:00:04.848Z,3.20
2022-08-04T04:02:51.537Z,3.40
2022-08-04T04:05:32.933Z,3.17
2022-08-04T04:08:32.310Z,3.10
2022-08-04T04:11:09.546Z,2.90
2022-08-04T04:13:44.930Z,3.00
2022-08-04T04:16:25.685Z,3.40
2022-08-04T04:19:02.728Z,3.10
2022-08-04T04:21:36.101Z,3.60
2022-08-04T04:24:11.631Z,3.20
2022-08-04T04:26:49.242Z,3.45
2022-08-04T04:29:23.486Z,3.40
2022-08-04T04:31:58.456Z,3.60
2022-08-04T04:34:33.438Z,3.20
2022-08-04T04:37:08.448Z,3.20
2022-08-04T04:39:44.259Z,3.13
2022-08-04T04:42:25.156Z,3.50
2022-08-04T04:45:18.624Z,3.30
2022-08-04T04:48:08.315Z,3.20
2022-08-04T04:50:46.419Z,3.20
2022-08-04T04:53:18.083Z,2.85
2022-08-04T04:55:48.367Z,3.30
2022-08-04T04:58:19.237Z,3.38
2022-08-04T05:01:16.280Z,3.50
2022-08-04T05:03:55.698Z,3.22
2022-08-04T05:06:38.553Z,3.53
2022-08-04T05:09:23.855Z,3.30
2022-08-04T05:12:06.003Z,3.20
2022-08-04T05:14:55.148Z,3.40
2022-08-04T05:17:26.498Z,3.60
2022-08-04T05:20:01.076Z,3.67
2022-08-04T05:22:31.782Z,3.50
2022-08-04T05:25:05.659Z,3.38
2022-08-04T05:27:39.986Z,3.70
2022-08-04T05:30:09.055Z,3.30
2022-08-04T05:32:41.922Z,3.50
2022-08-04T05:35:10.936Z,3.47
2022-08-04T05:37:41.609Z,3.45
2022-08-04T05:40:10.807Z,3.70
2022-08-04T05:42:40.019Z,3.70
2022-08-04T05:45:12.438Z,3.17
2022-08-04T05:47:46.448Z,4.00
2022-08-04T05:50:15.910Z,3.70
2022-08-04T05:52:46.855Z,3.78
2022-08-04T05:55:48.832Z,3.30
2022-08-04T05:58:08.952Z,3.10
2022-08-04T06:00:41.606Z,3.10
2022-08-04T06:03:10.884Z,3.30
2022-08-04T06:05:40.186Z,3.30
2022-08-04T06:08:13.460Z,3.60
2022-08-04T06:10:42.694Z,2.90
2022-08-04T06:13:47.761Z,3.00
2022-08-04T06:16:01.622Z,3.20
2022-08-04T06:19:57.270Z,3.40
2022-08-04T06:21:19.851Z,3.20
2022-08-04T06:23:52.985Z,3.50
2022-08-04T06:26:26.173Z,3.10
2022-08-04T06:28:56.029Z,3.07
2022-08-04T06:32:31.651Z,3.10
2022-08-04T06:34:31.943Z,3.13
2022-08-04T06:37:00.428Z,3.90
2022-08-04T06:39:31.150Z,3.10
2022-08-04T06:42:19.960Z,2.97
2022-08-04T06:44:49.847Z,3.00
2022-08-04T06:47:21.642Z,2.83
2022-08-04T06:51:24.861Z,3.90
2022-08-04T06:52:39.435Z,6.20
2022-08-04T06:55:09.176Z,4.50
2022-08-04T06:57:37.408Z,3.13
2022-08-04T07:00:08.088Z,6.73
2022-08-04T07:02:39.853Z,3.20
2022-08-04T07:05:08.445Z,2.60
2022-08-04T07:07:37.085Z,2.77
2022-08-04T07:10:25.744Z,3.33
2022-08-04T07:12:54.295Z,2.70
2022-08-04T07:15:22.580Z,2.73
2022-08-04T07:17:52.374Z,2.80
2022-08-04T07:20:34.845Z,2.90
2022-08-04T07:23:04.687Z,2.50
2022-08-04T07:25:58.761Z,2.80
2022-08-04T07:28:23.210Z,2.60
2022-08-04T07:30:51.652Z,2.37
2022-08-04T07:33:19.870Z,2.57
2022-08-04T07:36:09.787Z,2.90
2022-08-04T07:38:46.500Z,2.60
2022-08-04T07:41:37.039Z,2.77
2022-08-04T07:44:05.444Z,2.77
2022-08-04T07:46:33.250Z,2.53
2022-08-04T07:49:01.439Z,2.77
2022-08-04T07:51:30.679Z,2.40
2022-08-04T07:53:59.058Z,2.57
2022-08-04T07:56:28.848Z,2.27
2022-08-04T07:58:56.724Z,3.00
2022-08-04T08:01:25.309Z,2.00
2022-08-04T08:03:54.394Z,2.97
2022-08-04T08:06:32.243Z,2.80
2022-08-04T08:09:13.765Z,2.20
2022-08-04T08:12:37.593Z,2.37
2022-08-04T08:14:33.302Z,2.37
2022-08-04T08:17:02.544Z,2.50
2022-08-04T08:19:30.805Z,2.87
2022-08-04T08:22:00.779Z,2.50
2022-08-04T08:24:29.381Z,2.70
2022-08-04T08:26:58.787Z,2.57
2022-08-04T08:29:27.266Z,2.40
2022-08-04T08:31:59.499Z,2.27
2022-08-04T08:34:31.998Z,2.63
2022-08-04T08:37:04.214Z,2.77
2022-08-04T08:39:36.980Z,2.53
2022-08-04T08:42:29.472Z,2.40
2022-08-04T08:45:18.235Z,2.70
2022-08-04T08:48:06.993Z,3.03
2022-08-04T08:50:58.790Z,2.77
2022-08-04T08:53:46.083Z,2.77
2022-08-04T08:56:18.286Z,2.47
2022-08-04T08:59:01.853Z,2.83
2022-08-04T09:01:42.345Z,2.70
2022-08-04T09:04:40.357Z,2.07
2022-08-04T09:07:14.832Z,2.40
2022-08-04T09:10:00.530Z,2.57
2022-08-04T09:12:31.065Z,3.43
2022-08-04T09:15:04.289Z,2.77
2022-08-04T09:17:36.696Z,2.37
2022-08-04T09:20:07.392Z,3.23
2022-08-04T09:22:39.873Z,2.70
2022-08-04T09:25:10.247Z,1.97
2022-08-04T09:27:42.293Z,1.97
2022-08-04T09:30:13.348Z,2.70
2022-08-04T09:32:45.462Z,2.10
2022-08-04T09:35:19.119Z,3.10
2022-08-04T09:37:49.798Z,1.70
2022-08-04T09:40:31.487Z,2.23
2022-08-04T09:43:14.838Z,2.63
2022-08-04T09:45:50.462Z,2.78
2022-08-04T09:48:25.464Z,2.40
2022-08-04T09:50:58.073Z,2.00
2022-08-04T09:53:31.854Z,2.20
2022-08-04T09:56:04.430Z,1.92
2022-08-04T09:58:40.238Z,1.52
2022-08-04T10:01:13.541Z,1.95
2022-08-04T10:03:46.120Z,1.83
2022-08-04T10:06:24.049Z,1.63
2022-08-04T10:09:01.116Z,1.98
2022-08-04T10:11:56.134Z,1.85
2022-08-04T10:14:36.985Z,1.73
2022-08-04T10:17:13.229Z,1.95
2022-08-04T10:19:42.590Z,1.80
2022-08-04T10:22:28.353Z,2.20
2022-08-04T10:25:04.097Z,1.98
2022-08-04T10:27:35.129Z,2.00
2022-08-04T10:30:10.241Z,1.90
2022-08-04T10:32:43.231Z,1.40
2022-08-04T10:35:12.841Z,2.10
2022-08-04T10:37:59.733Z,1.75
2022-08-04T10:40:40.534Z,1.98
2022-08-04T10:43:20.942Z,1.80
2022-08-04T10:45:57.752Z,1.83
2022-08-04T10:48:34.605Z,3.53
2022-08-04T10:51:05.337Z,1.88
2022-08-04T10:53:36.001Z,2.10
2022-08-04T10:56:08.701Z,1.65
2022-08-04T10:58:47.835Z,1.65
2022-08-04T11:02:01.162Z,1.83
2022-08-04T11:04:13.202Z,2.00
2022-08-04T11:06:41.500Z,2.22
2022-08-04T11:09:13.884Z,1.90
2022-08-04T11:12:00.179Z,1.80
2022-08-04T11:14:34.475Z,1.83
2022-08-04T11:17:05.717Z,2.03
2022-08-04T11:19:44.705Z,2.15
2022-08-04T11:22:23.468Z,1.90
2022-08-04T11:24:53.626Z,2.42
2022-08-04T11:27:35.300Z,1.90
2022-08-04T11:30:05.510Z,2.33
2022-08-04T11:32:36.934Z,2.00
2022-08-04T11:35:08.443Z,2.17
2022-08-04T11:37:42.500Z,1.65
2022-08-04T11:40:14.585Z,1.70
2022-08-04T11:42:50.847Z,2.00
2022-08-04T11:45:20.609Z,1.63
2022-08-04T11:47:52.301Z,1.85
2022-08-04T11:50:28.877Z,1.80
2022-08-04T11:52:58.218Z,1.52
2022-08-04T11:55:28.236Z,1.70
2022-08-04T11:57:57.103Z,1.73
2022-08-04T12:00:27.792Z,1.50
2022-08-04T12:03:12.040Z,1.80
2022-08-04T12:05:48.061Z,2.00
2022-08-04T12:08:23.222Z,1.67
2022-08-04T12:10:55.259Z,1.60
2022-08-04T12:13:29.225Z,1.63
2022-08-04T12:16:02.223Z,1.63
2022-08-04T12:18:34.225Z,1.73
2022-08-04T12:21:06.297Z,1.92
2022-08-04T12:23:39.744Z,2.55
2022-08-04T12:26:08.941Z,1.70
2022-08-04T12:29:07.285Z,2.10
2022-08-04T12:31:32.478Z,1.77
2022-08-04T12:34:06.594Z,1.92
2022-08-04T12:36:41.206Z,1.75
2022-08-04T12:39:12.973Z,1.40
2022-08-04T12:41:43.336Z,2.17
2022-08-04T12:44:33.401Z,1.50
2022-08-04T12:47:28.550Z,1.90
2022-08-04T12:50:00.977Z,1.80
2022-08-04T12:55:21.458Z,1.90
2022-08-04T12:57:50.793Z,2.30
2022-08-04T13:00:29.781Z,1.73
2022-08-04T13:03:01.814Z,2.05
2022-08-04T13:05:31.787Z,2.17
2022-08-04T13:08:01.739Z,2.13
2022-08-04T13:10:31.050Z,2.50
2022-08-04T13:12:59.850Z,2.58
2022-08-04T13:15:29.304Z,2.17
2022-08-04T13:17:59.879Z,2.30
2022-08-04T13:20:28.950Z,2.05
2022-08-04T13:23:08.965Z,2.60
2022-08-04T13:26:44.526Z,2.35
2022-08-04T13:28:29.152Z,2.40
2022-08-04T13:31:00.590Z,2.28
2022-08-04T13:33:30.359Z,2.20
2022-08-04T13:35:59.269Z,2.20
2022-08-04T13:38:29.144Z,2.10
2022-08-04T13:40:58.036Z,1.88
2022-08-04T13:44:16.347Z,2.35
2022-08-04T13:46:27.977Z,2.25
2022-08-04T13:51:58.073Z,2.47
2022-08-04T13:54:36.050Z,2.65
2022-08-04T13:57:13.762Z,2.72
2022-08-04T13:59:43.026Z,2.63
2022-08-04T14:02:18.477Z,3.03
2022-08-04T14:04:52.694Z,2.33
2022-08-04T14:07:22.691Z,2.28
2022-08-04T14:10:03.735Z,1.90
2022-08-04T14:12:38.890Z,2.47
2022-08-04T14:16:03.094Z,2.10
2022-08-04T14:18:22.898Z,2.35
2022-08-04T14:20:58.919Z,2.42
2022-08-04T14:23:27.400Z,2.20
2022-08-04T14:26:14.200Z,2.22
2022-08-04T14:29:09.500Z,2.35
2022-08-04T14:31:31.135Z,2.00
2022-08-04T14:34:03.894Z,1.77
2022-08-04T14:37:13.173Z,2.17
2022-08-04T14:39:39.155Z,1.85
2022-08-04T14:42:09.069Z,2.42
2022-08-04T14:44:53.636Z,2.08
2022-08-04T14:47:41.026Z,2.30
2022-08-04T14:50:09.907Z,2.45
2022-08-04T14:52:37.896Z,2.30
2022-08-04T14:55:16.287Z,2.13
2022-08-04T14:58:35.855Z,2.13
2022-08-04T15:00:34.367Z,2.03
2022-08-04T15:03:03.277Z,2.17
2022-08-04T15:06:03.042Z,2.10
2022-08-04T15:08:20.121Z,2.55
2022-08-04T15:10:48.000Z,2.65
2022-08-04T15:13:17.408Z,2.15
2022-08-04T15:16:06.037Z,2.30
2022-08-04T15:18:34.515Z,2.08
2022-08-04T15:21:03.275Z,2.20
2022-08-04T15:23:32.009Z,2.42
2022-08-04T15:26:10.579Z,2.22
2022-08-04T15:28:40.878Z,2.30
2022-08-04T15:40:01.534Z,2.28
2022-08-04T15:42:34.167Z,2.15
2022-08-04T15:45:13.672Z,2.30
2022-08-04T15:47:41.755Z,2.00
2022-08-04T15:50:28.606Z,2.47
2022-08-04T15:53:10.322Z,2.20
2022-08-04T15:55:41.234Z,2.10
2022-08-04T15:58:17.242Z,2.60
2022-08-04T16:04:34.319Z,2.78
2022-08-04T16:07:07.458Z,2.90
2022-08-04T16:09:45.487Z,2.50
2022-08-04T16:12:52.708Z,2.40
2022-08-04T16:15:36.934Z,2.60
2022-08-04T16:18:06.875Z,2.90
2022-08-04T16:20:37.412Z,2.80
2022-08-04T16:23:37.424Z,2.42
2022-08-04T17:11:33.144Z,2.83
2022-08-04T17:14:05.487Z,2.50
2022-08-04T17:16:36.745Z,2.30
2022-08-04T17:19:24.484Z,2.50
2022-08-04T17:22:04.839Z,2.60
2022-08-04T17:24:34.793Z,2.40
2022-08-04T17:28:09.004Z,2.70
2022-08-04T17:29:52.778Z,2.80
2022-08-04T17:32:22.452Z,3.00
2022-08-04T17:34:51.450Z,3.40
2022-08-04T17:37:38.815Z,3.47
2022-08-04T17:40:10.216Z,2.73
2022-08-04T17:42:41.989Z,2.60
2022-08-04T17:45:49.137Z,2.60
2022-08-04T17:48:02.852Z,2.43
2022-08-04T17:50:34.741Z,2.40
2022-08-04T17:53:11.525Z,2.17
2022-08-04T17:55:44.657Z,2.77
2022-08-04T17:58:22.323Z,3.07
2022-08-04T18:01:24.263Z,2.53
2022-08-04T18:03:53.168Z,2.73
2022-08-04T18:06:21.960Z,2.90
2022-08-04T18:08:54.824Z,2.50
2022-08-04T18:11:29.889Z,2.70
2022-08-04T18:14:12.111Z,2.53
2022-08-04T18:16:43.981Z,2.77
2022-08-04T18:19:12.093Z,2.60
2022-08-04T18:21:45.742Z,2.70
2022-08-04T18:27:15.875Z,2.47
2022-08-04T18:30:15.508Z,2.43
2022-08-04T18:32:34.169Z,2.30
2022-08-04T18:35:05.331Z,2.73
2022-08-04T18:38:06.180Z,2.37
2022-08-04T18:40:26.449Z,2.67
2022-08-04T18:43:14.050Z,2.40
2022-08-04T18:45:51.057Z,2.73
2022-08-04T18:48:21.818Z,2.90
2022-08-04T18:53:54.984Z,3.07
2022-08-04T18:56:31.755Z,2.60
2022-08-04T18:59:00.968Z,2.50
2022-08-04T19:02:13.609Z,3.33
2022-08-04T19:04:33.678Z,2.87
2022-08-04T19:08:01.528Z,2.60
2022-08-04T19:09:57.280Z,2.60
2022-08-04T19:12:28.199Z,2.53
2022-08-04T19:17:57.137Z,2.60
2022-08-04T19:20:29.393Z,2.80
2022-08-04T19:24:10.978Z,2.80
2022-08-04T19:26:02.938Z,2.40
2022-08-04T19:28:34.254Z,2.70
2022-08-04T19:31:03.768Z,2.90
2022-08-04T19:33:58.711Z,2.78
2022-08-04T19:36:21.079Z,2.83
2022-08-04T19:38:55.792Z,2.70
2022-08-04T19:41:23.657Z,2.70
2022-08-04T19:43:54.511Z,3.00
2022-08-04T19:46:24.832Z,2.90
2022-08-04T19:48:59.274Z,3.27
2022-08-04T19:51:28.883Z,3.85
2022-08-04T19:54:04.182Z,2.88
2022-08-04T19:56:40.280Z,2.90
2022-08-04T19:59:09.273Z,2.90
2022-08-04T20:01:44.415Z,3.37
2022-08-04T20:04:14.027Z,3.00
2022-08-04T20:06:41.955Z,3.05
2022-08-04T20:09:24.763Z,2.80
2022-08-04T20:11:53.016Z,2.70
2022-08-04T20:14:22.924Z,3.10
2022-08-04T20:16:59.896Z,3.05
2022-08-04T20:19:30.562Z,3.30
2022-08-04T20:21:58.571Z,3.10
2022-08-04T20:24:40.743Z,3.13
2022-08-04T20:27:15.389Z,2.78
2022-08-04T20:29:48.442Z,3.58
2022-08-04T20:32:22.099Z,3.05
2022-08-04T20:34:52.219Z,3.58
2022-08-04T20:37:20.698Z,3.70
2022-08-04T20:39:54.458Z,3.90
2022-08-04T20:42:27.129Z,4.00
2022-08-04T20:45:01.585Z,4.43
2022-08-04T20:47:33.731Z,3.70
2022-08-04T20:50:09.160Z,4.38
2022-08-04T20:52:37.717Z,3.80
2022-08-04T20:55:06.268Z,4.70
2022-08-04T20:57:48.841Z,4.28
2022-08-04T21:00:29.902Z,4.00
2022-08-04T21:02:59.773Z,3.85
2022-08-04T21:05:31.521Z,4.70
2022-08-04T21:08:01.909Z,5.00
2022-08-04T21:10:30.305Z,4.55
2022-08-04T21:13:01.404Z,5.10
2022-08-04T21:15:58.300Z,4.40
2022-08-04T21:18:18.085Z,4.20
2022-08-04T21:21:06.543Z,3.90
2022-08-04T21:23:36.203Z,3.95
2022-08-04T21:26:11.217Z,4.60
2022-08-04T21:28:38.985Z,3.47
2022-08-04T21:31:11.048Z,3.65
2022-08-04T21:33:51.164Z,3.83
2022-08-04T21:36:21.130Z,4.28
2022-08-04T21:42:10.072Z,3.70
2022-08-04T21:44:24.554Z,3.70
2022-08-04T21:46:55.319Z,3.90
2022-08-04T21:49:23.253Z,3.95
2022-08-04T21:51:59.056Z,4.00
2022-08-04T21:54:28.461Z,4.05
2022-08-04T21:56:56.212Z,3.78
2022-08-04T21:59:31.023Z,3.80
2022-08-04T22:02:03.905Z,3.90
2022-08-04T22:04:32.106Z,4.20
2022-08-04T22:10:02.257Z,3.53
2022-08-04T22:12:33.635Z,3.50
2022-08-04T22:15:01.927Z,4.00
2022-08-04T22:17:55.069Z,3.97
2022-08-04T22:20:27.361Z,3.72
2022-08-04T22:23:06.096Z,3.75
2022-08-04T22:25:44.956Z,3.80
2022-08-04T22:28:28.538Z,3.40
2022-08-04T22:30:57.037Z,4.07
2022-08-04T22:33:55.538Z,3.70
2022-08-04T22:36:13.863Z,4.28
2022-08-04T22:38:48.822Z,3.60
2022-08-04T22:41:22.067Z,4.03
2022-08-04T22:44:02.740Z,3.60
2022-08-04T22:46:31.805Z,3.70
2022-08-04T22:49:00.329Z,3.63
2022-08-04T22:51:30.344Z,3.30
2022-08-04T22:54:01.651Z,3.42
2022-08-04T22:56:38.519Z,3.27
2022-08-04T22:59:06.939Z,3.67
2022-08-04T23:02:00.311Z,4.00
2022-08-04T23:04:26.519Z,3.50
2022-08-04T23:06:55.421Z,3.28
2022-08-04T23:09:26.955Z,3.40
2022-08-04T23:12:28.937Z,3.70
2022-08-04T23:14:59.076Z,3.28
2022-08-04T23:17:28.414Z,3.47
2022-08-04T23:19:58.769Z,3.58
2022-08-04T23:22:41.993Z,3.80
2022-08-04T23:25:15.148Z,4.03
2022-08-04T23:27:53.792Z,3.92
2022-08-04T23:30:51.810Z,3.93
2022-08-04T23:33:51.499Z,3.90
2022-08-04T23:36:13.412Z,4.13
2022-08-04T23:38:42.168Z,4.40
2022-08-04T23:41:13.439Z,4.57
2022-08-04T23:43:49.368Z,4.30
2022-08-04T23:46:28.823Z,4.43
2022-08-04T23:48:56.526Z,4.15
2022-08-04T23:51:24.816Z,4.20
2022-08-04T23:54:02.841Z,4.50
2022-08-04T23:56:34.076Z,4.70
2022-08-04T23:59:03.646Z,4.40
